sensor_id;sensor_type;location;lat;lon;timestamp;temperature;humidity
12152;DHT22;6139;51.274;7.128;2024-01-27T00:00:04;3.80;1.00
12152;DHT22;6139;51.274;7.128;2024-01-27T00:01:09;3.80;99.90
12152;DHT22;6139;51.274;7.128;2024-01-27T00:02:11;3.80;89.80
12152;DHT22;6139;51.274;7.128;2024-01-27T00:03:14;3.80;99.90
12152;DHT22;6139;51.274;7.128;2024-01-27T00:04:15;3.80;99.90
12152;DHT22;6139;51.274;7.128;2024-01-27T00:05:17;3.80;99.90
12152;DHT22;6139;51.274;7.128;2024-01-27T00:06:19;3.80;99.90
12152;DHT22;6139;51.274;7.128;2024-01-27T00:07:20;3.80;99.90
12152;DHT22;6139;51.274;7.128;2024-01-27T00:08:22;3.80;99.90
12152;DHT22;6139;51.274;7.128;2024-01-27T00:09:23;3.80;99.90
12152;DHT22;6139;51.274;7.128;2024-01-27T00:10:25;3.80;99.90
12152;DHT22;6139;51.274;7.128;2024-01-27T00:11:26;3.80;99.90
12152;DHT22;6139;51.274;7.128;2024-01-27T00:12:28;3.80;99.90
12152;DHT22;6139;51.274;7.128;2024-01-27T00:13:29;3.70;99.90
12152;DHT22;6139;51.274;7.128;2024-01-27T00:14:31;3.70;99.90
12152;DHT22;6139;51.274;7.128;2024-01-27T00:15:32;3.70;99.90
12152;DHT22;6139;51.274;7.128;2024-01-27T00:16:34;3.70;99.90
12152;DHT22;6139;51.274;7.128;2024-01-27T00:17:35;3.70;99.90
12152;DHT22;6139;51.274;7.128;2024-01-27T00:18:39;3.70;99.90
12152;DHT22;6139;51.274;7.128;2024-01-27T00:19:39;3.70;99.90
12152;DHT22;6139;51.274;7.128;2024-01-27T00:20:42;3.60;99.90
12152;DHT22;6139;51.274;7.128;2024-01-27T00:21:43;3.70;99.90
12152;DHT22;6139;51.274;7.128;2024-01-27T00:22:44;3.70;99.90
12152;DHT22;6139;51.274;7.128;2024-01-27T00:23:46;3.70;99.90
12152;DHT22;6139;51.274;7.128;2024-01-27T00:24:47;3.70;99.90
12152;DHT22;6139;51.274;7.128;2024-01-27T00:25:48;3.60;99.90
12152;DHT22;6139;51.274;7.128;2024-01-27T00:26:50;3.60;99.90
12152;DHT22;6139;51.274;7.128;2024-01-27T00:27:51;3.60;99.90
12152;DHT22;6139;51.274;7.128;2024-01-27T00:28:53;3.60;99.90
12152;DHT22;6139;51.274;7.128;2024-01-27T00:29:54;3.60;99.90
12152;DHT22;6139;51.274;7.128;2024-01-27T00:30:56;3.60;99.90
12152;DHT22;6139;51.274;7.128;2024-01-27T00:31:57;3.60;99.90
12152;DHT22;6139;51.274;7.128;2024-01-27T00:32:58;3.50;99.90
12152;DHT22;6139;51.274;7.128;2024-01-27T00:34:01;3.60;99.90
12152;DHT22;6139;51.274;7.128;2024-01-27T00:35:02;3.50;99.90
12152;DHT22;6139;51.274;7.128;2024-01-27T00:36:05;3.50;99.90
12152;DHT22;6139;51.274;7.128;2024-01-27T00:37:06;3.50;99.90
12152;DHT22;6139;51.274;7.128;2024-01-27T00:38:08;3.50;99.90
12152;DHT22;6139;51.274;7.128;2024-01-27T00:39:09;3.50;99.90
12152;DHT22;6139;51.274;7.128;2024-01-27T00:40:11;3.50;99.90
12152;DHT22;6139;51.274;7.128;2024-01-27T00:41:16;3.50;99.90
12152;DHT22;6139;51.274;7.128;2024-01-27T00:42:18;3.40;99.90
12152;DHT22;6139;51.274;7.128;2024-01-27T00:43:24;3.40;99.90
12152;DHT22;6139;51.274;7.128;2024-01-27T00:44:26;3.50;99.90
12152;DHT22;6139;51.274;7.128;2024-01-27T00:45:27;3.50;99.90
12152;DHT22;6139;51.274;7.128;2024-01-27T00:46:30;3.50;99.90
12152;DHT22;6139;51.274;7.128;2024-01-27T00:47:31;3.50;99.90
12152;DHT22;6139;51.274;7.128;2024-01-27T00:48:32;3.40;99.90
12152;DHT22;6139;51.274;7.128;2024-01-27T00:49:36;3.40;99.90
12152;DHT22;6139;51.274;7.128;2024-01-27T00:50:37;3.40;99.90
12152;DHT22;6139;51.274;7.128;2024-01-27T00:51:39;3.40;99.90
12152;DHT22;6139;51.274;7.128;2024-01-27T00:52:40;3.40;99.90
12152;DHT22;6139;51.274;7.128;2024-01-27T00:53:42;3.40;99.90
12152;DHT22;6139;51.274;7.128;2024-01-27T00:54:43;3.40;99.90
12152;DHT22;6139;51.274;7.128;2024-01-27T00:55:45;3.40;99.90
12152;DHT22;6139;51.274;7.128;2024-01-27T00:56:46;3.30;99.90
12152;DHT22;6139;51.274;7.128;2024-01-27T00:57:49;3.30;99.90
12152;DHT22;6139;51.274;7.128;2024-01-27T00:58:50;3.40;99.90
12152;DHT22;6139;51.274;7.128;2024-01-27T00:59:51;3.40;99.90
12152;DHT22;6139;51.274;7.128;2024-01-27T01:00:53;3.30;99.90
12152;DHT22;6139;51.274;7.128;2024-01-27T01:01:54;3.30;99.90
12152;DHT22;6139;51.274;7.128;2024-01-27T01:02:56;3.30;99.90
12152;DHT22;6139;51.274;7.128;2024-01-27T01:03:57;3.30;99.90
12152;DHT22;6139;51.274;7.128;2024-01-27T01:05:00;3.30;99.90
12152;DHT22;6139;51.274;7.128;2024-01-27T01:06:02;3.30;99.90
12152;DHT22;6139;51.274;7.128;2024-01-27T01:07:03;3.30;99.90
12152;DHT22;6139;51.274;7.128;2024-01-27T01:08:06;3.30;99.90
12152;DHT22;6139;51.274;7.128;2024-01-27T01:09:07;3.30;99.90
12152;DHT22;6139;51.274;7.128;2024-01-27T01:10:09;3.30;99.90
12152;DHT22;6139;51.274;7.128;2024-01-27T01:11:10;3.20;99.90
12152;DHT22;6139;51.274;7.128;2024-01-27T01:12:12;3.20;99.90
12152;DHT22;6139;51.274;7.128;2024-01-27T01:13:13;3.20;99.90
12152;DHT22;6139;51.274;7.128;2024-01-27T01:14:14;3.20;99.90
12152;DHT22;6139;51.274;7.128;2024-01-27T01:15:16;3.20;1.00
12152;DHT22;6139;51.274;7.128;2024-01-27T01:16:17;3.20;1.00
12152;DHT22;6139;51.274;7.128;2024-01-27T01:17:19;3.20;1.00
12152;DHT22;6139;51.274;7.128;2024-01-27T01:18:20;3.20;1.00
12152;DHT22;6139;51.274;7.128;2024-01-27T01:19:21;3.20;1.00
12152;DHT22;6139;51.274;7.128;2024-01-27T01:20:24;3.10;1.00
12152;DHT22;6139;51.274;7.128;2024-01-27T01:21:26;3.20;1.00
12152;DHT22;6139;51.274;7.128;2024-01-27T01:22:29;3.20;1.00
12152;DHT22;6139;51.274;7.128;2024-01-27T01:23:30;3.20;1.00
12152;DHT22;6139;51.274;7.128;2024-01-27T01:24:32;3.20;1.00
12152;DHT22;6139;51.274;7.128;2024-01-27T01:25:33;3.20;1.00
12152;DHT22;6139;51.274;7.128;2024-01-27T01:26:35;3.20;1.00
12152;DHT22;6139;51.274;7.128;2024-01-27T01:27:36;3.20;1.00
12152;DHT22;6139;51.274;7.128;2024-01-27T01:28:36;3.20;1.00
12152;DHT22;6139;51.274;7.128;2024-01-27T01:29:38;3.20;1.00
12152;DHT22;6139;51.274;7.128;2024-01-27T01:30:39;3.20;1.00
12152;DHT22;6139;51.274;7.128;2024-01-27T01:31:41;3.20;1.00
12152;DHT22;6139;51.274;7.128;2024-01-27T01:32:43;3.20;1.00
12152;DHT22;6139;51.274;7.128;2024-01-27T01:33:45;3.20;1.00
12152;DHT22;6139;51.274;7.128;2024-01-27T01:34:46;3.20;1.00
12152;DHT22;6139;51.274;7.128;2024-01-27T01:35:49;3.20;1.00
12152;DHT22;6139;51.274;7.128;2024-01-27T01:36:50;3.20;1.00
12152;DHT22;6139;51.274;7.128;2024-01-27T01:37:52;3.10;1.00
12152;DHT22;6139;51.274;7.128;2024-01-27T01:38:53;3.20;99.90
12152;DHT22;6139;51.274;7.128;2024-01-27T01:39:55;3.20;99.90
12152;DHT22;6139;51.274;7.128;2024-01-27T01:40:56;3.10;99.90
12152;DHT22;6139;51.274;7.128;2024-01-27T01:41:58;3.10;99.90
12152;DHT22;6139;51.274;7.128;2024-01-27T01:42:59;3.10;99.90
12152;DHT22;6139;51.274;7.128;2024-01-27T01:44:00;3.10;99.90
12152;DHT22;6139;51.274;7.128;2024-01-27T01:45:02;3.00;99.90
12152;DHT22;6139;51.274;7.128;2024-01-27T01:46:03;3.10;99.90
12152;DHT22;6139;51.274;7.128;2024-01-27T01:47:07;3.10;99.90
12152;DHT22;6139;51.274;7.128;2024-01-27T01:48:09;3.00;99.90
12152;DHT22;6139;51.274;7.128;2024-01-27T01:49:11;3.00;99.90
12152;DHT22;6139;51.274;7.128;2024-01-27T01:50:12;3.00;99.90
12152;DHT22;6139;51.274;7.128;2024-01-27T01:51:16;3.00;99.90
12152;DHT22;6139;51.274;7.128;2024-01-27T01:52:17;3.00;1.00
12152;DHT22;6139;51.274;7.128;2024-01-27T01:53:21;3.00;1.00
12152;DHT22;6139;51.274;7.128;2024-01-27T01:54:23;3.00;1.00
12152;DHT22;6139;51.274;7.128;2024-01-27T01:55:28;3.00;1.00
12152;DHT22;6139;51.274;7.128;2024-01-27T01:56:29;3.00;99.90
12152;DHT22;6139;51.274;7.128;2024-01-27T01:57:31;3.00;1.00
12152;DHT22;6139;51.274;7.128;2024-01-27T01:58:33;3.00;99.90
12152;DHT22;6139;51.274;7.128;2024-01-27T01:59:35;3.00;1.00
12152;DHT22;6139;51.274;7.128;2024-01-27T02:00:41;3.00;1.00
12152;DHT22;6139;51.274;7.128;2024-01-27T02:01:42;3.00;1.00
12152;DHT22;6139;51.274;7.128;2024-01-27T02:02:44;3.00;1.00
12152;DHT22;6139;51.274;7.128;2024-01-27T02:03:52;3.00;1.00
12152;DHT22;6139;51.274;7.128;2024-01-27T02:04:54;3.10;1.00
12152;DHT22;6139;51.274;7.128;2024-01-27T02:05:55;3.00;1.00
12152;DHT22;6139;51.274;7.128;2024-01-27T02:06:59;3.00;1.00
12152;DHT22;6139;51.274;7.128;2024-01-27T02:08:00;3.10;1.00
12152;DHT22;6139;51.274;7.128;2024-01-27T02:09:04;3.00;1.00
12152;DHT22;6139;51.274;7.128;2024-01-27T02:10:07;3.00;1.00
12152;DHT22;6139;51.274;7.128;2024-01-27T02:11:14;3.00;1.00
12152;DHT22;6139;51.274;7.128;2024-01-27T02:12:15;3.00;1.00
12152;DHT22;6139;51.274;7.128;2024-01-27T02:13:17;3.00;1.00
12152;DHT22;6139;51.274;7.128;2024-01-27T02:14:19;3.00;1.00
12152;DHT22;6139;51.274;7.128;2024-01-27T02:15:22;3.00;1.00
12152;DHT22;6139;51.274;7.128;2024-01-27T02:16:22;3.00;1.00
12152;DHT22;6139;51.274;7.128;2024-01-27T02:17:24;3.00;1.00
12152;DHT22;6139;51.274;7.128;2024-01-27T02:18:25;3.00;1.00
12152;DHT22;6139;51.274;7.128;2024-01-27T02:19:27;3.00;1.00
12152;DHT22;6139;51.274;7.128;2024-01-27T02:20:28;3.00;1.00
12152;DHT22;6139;51.274;7.128;2024-01-27T02:21:30;3.00;1.00
12152;DHT22;6139;51.274;7.128;2024-01-27T02:22:33;3.00;1.00
12152;DHT22;6139;51.274;7.128;2024-01-27T02:23:34;3.00;1.00
12152;DHT22;6139;51.274;7.128;2024-01-27T02:24:37;2.90;1.00
12152;DHT22;6139;51.274;7.128;2024-01-27T02:25:38;2.90;1.00
12152;DHT22;6139;51.274;7.128;2024-01-27T02:26:40;2.90;1.00
12152;DHT22;6139;51.274;7.128;2024-01-27T02:27:41;2.90;1.00
12152;DHT22;6139;51.274;7.128;2024-01-27T02:28:43;2.90;1.00
12152;DHT22;6139;51.274;7.128;2024-01-27T02:29:44;2.90;1.00
12152;DHT22;6139;51.274;7.128;2024-01-27T02:30:46;2.90;1.00
12152;DHT22;6139;51.274;7.128;2024-01-27T02:31:47;2.90;1.00
12152;DHT22;6139;51.274;7.128;2024-01-27T02:32:48;2.90;1.00
12152;DHT22;6139;51.274;7.128;2024-01-27T02:33:50;2.90;1.00
12152;DHT22;6139;51.274;7.128;2024-01-27T02:34:51;2.80;1.00
12152;DHT22;6139;51.274;7.128;2024-01-27T02:35:53;2.80;1.00
12152;DHT22;6139;51.274;7.128;2024-01-27T02:36:53;2.80;1.00
12152;DHT22;6139;51.274;7.128;2024-01-27T02:37:55;2.80;1.00
12152;DHT22;6139;51.274;7.128;2024-01-27T02:38:56;2.90;1.00
12152;DHT22;6139;51.274;7.128;2024-01-27T02:39:59;2.80;1.00
12152;DHT22;6139;51.274;7.128;2024-01-27T02:41:01;2.80;1.00
12152;DHT22;6139;51.274;7.128;2024-01-27T02:42:02;2.80;1.00
12152;DHT22;6139;51.274;7.128;2024-01-27T02:43:03;2.80;1.00
12152;DHT22;6139;51.274;7.128;2024-01-27T02:44:05;2.80;1.00
12152;DHT22;6139;51.274;7.128;2024-01-27T02:45:07;2.80;1.00
12152;DHT22;6139;51.274;7.128;2024-01-27T02:46:10;2.80;1.00
12152;DHT22;6139;51.274;7.128;2024-01-27T02:47:12;2.80;1.00
12152;DHT22;6139;51.274;7.128;2024-01-27T02:48:13;2.70;1.00
12152;DHT22;6139;51.274;7.128;2024-01-27T02:49:15;2.70;1.00
12152;DHT22;6139;51.274;7.128;2024-01-27T02:50:15;2.70;1.00
12152;DHT22;6139;51.274;7.128;2024-01-27T02:51:19;2.70;1.00
12152;DHT22;6139;51.274;7.128;2024-01-27T02:52:21;2.70;1.00
12152;DHT22;6139;51.274;7.128;2024-01-27T02:53:23;2.70;1.00
12152;DHT22;6139;51.274;7.128;2024-01-27T02:54:24;2.70;1.00
12152;DHT22;6139;51.274;7.128;2024-01-27T02:55:27;2.70;1.00
12152;DHT22;6139;51.274;7.128;2024-01-27T02:56:28;2.70;1.00
12152;DHT22;6139;51.274;7.128;2024-01-27T02:57:30;2.70;1.00
12152;DHT22;6139;51.274;7.128;2024-01-27T02:58:31;2.70;1.00
12152;DHT22;6139;51.274;7.128;2024-01-27T02:59:33;2.80;1.00
12152;DHT22;6139;51.274;7.128;2024-01-27T03:00:34;2.70;1.00
12152;DHT22;6139;51.274;7.128;2024-01-27T03:01:36;2.80;1.00
12152;DHT22;6139;51.274;7.128;2024-01-27T03:02:37;2.70;1.00
12152;DHT22;6139;51.274;7.128;2024-01-27T03:03:38;2.70;1.00
12152;DHT22;6139;51.274;7.128;2024-01-27T03:04:39;2.70;1.00
12152;DHT22;6139;51.274;7.128;2024-01-27T03:05:41;2.70;1.00
12152;DHT22;6139;51.274;7.128;2024-01-27T03:06:42;2.70;1.00
12152;DHT22;6139;51.274;7.128;2024-01-27T03:07:45;2.70;1.00
12152;DHT22;6139;51.274;7.128;2024-01-27T03:08:46;2.70;1.00
12152;DHT22;6139;51.274;7.128;2024-01-27T03:09:47;2.70;1.00
12152;DHT22;6139;51.274;7.128;2024-01-27T03:10:50;2.70;1.00
12152;DHT22;6139;51.274;7.128;2024-01-27T03:11:51;2.70;1.00
12152;DHT22;6139;51.274;7.128;2024-01-27T03:12:53;2.70;1.00
12152;DHT22;6139;51.274;7.128;2024-01-27T03:13:54;2.70;1.00
12152;DHT22;6139;51.274;7.128;2024-01-27T03:14:55;2.60;1.00
12152;DHT22;6139;51.274;7.128;2024-01-27T03:15:57;2.60;1.00
12152;DHT22;6139;51.274;7.128;2024-01-27T03:16:58;2.60;1.00
12152;DHT22;6139;51.274;7.128;2024-01-27T03:18:00;2.60;1.00
12152;DHT22;6139;51.274;7.128;2024-01-27T03:19:01;2.60;1.00
12152;DHT22;6139;51.274;7.128;2024-01-27T03:20:04;2.60;1.00
12152;DHT22;6139;51.274;7.128;2024-01-27T03:21:06;2.60;1.00
12152;DHT22;6139;51.274;7.128;2024-01-27T03:22:08;2.60;1.00
12152;DHT22;6139;51.274;7.128;2024-01-27T03:23:09;2.60;1.00
12152;DHT22;6139;51.274;7.128;2024-01-27T03:24:10;2.60;1.00
12152;DHT22;6139;51.274;7.128;2024-01-27T03:25:13;2.60;1.00
12152;DHT22;6139;51.274;7.128;2024-01-27T03:26:15;2.50;1.00
12152;DHT22;6139;51.274;7.128;2024-01-27T03:27:17;2.50;1.00
12152;DHT22;6139;51.274;7.128;2024-01-27T03:28:18;2.50;1.00
12152;DHT22;6139;51.274;7.128;2024-01-27T03:29:20;2.50;1.00
12152;DHT22;6139;51.274;7.128;2024-01-27T03:30:21;2.50;1.00
12152;DHT22;6139;51.274;7.128;2024-01-27T03:31:23;2.50;1.00
12152;DHT22;6139;51.274;7.128;2024-01-27T03:32:24;2.50;1.00
12152;DHT22;6139;51.274;7.128;2024-01-27T03:33:26;2.50;1.00
12152;DHT22;6139;51.274;7.128;2024-01-27T03:34:29;2.50;1.00
12152;DHT22;6139;51.274;7.128;2024-01-27T03:35:31;2.50;1.00
12152;DHT22;6139;51.274;7.128;2024-01-27T03:36:32;2.50;1.00
12152;DHT22;6139;51.274;7.128;2024-01-27T03:37:34;2.50;1.00
12152;DHT22;6139;51.274;7.128;2024-01-27T03:38:35;2.50;1.00
12152;DHT22;6139;51.274;7.128;2024-01-27T03:39:37;2.50;1.00
12152;DHT22;6139;51.274;7.128;2024-01-27T03:40:41;2.50;1.00
12152;DHT22;6139;51.274;7.128;2024-01-27T03:41:44;2.50;1.00
12152;DHT22;6139;51.274;7.128;2024-01-27T03:42:45;2.50;1.00
12152;DHT22;6139;51.274;7.128;2024-01-27T03:43:47;2.50;1.00
12152;DHT22;6139;51.274;7.128;2024-01-27T03:44:48;2.50;1.00
12152;DHT22;6139;51.274;7.128;2024-01-27T03:45:50;2.50;1.00
12152;DHT22;6139;51.274;7.128;2024-01-27T03:46:51;2.50;1.00
12152;DHT22;6139;51.274;7.128;2024-01-27T03:47:53;2.50;1.00
12152;DHT22;6139;51.274;7.128;2024-01-27T03:48:54;2.50;1.00
12152;DHT22;6139;51.274;7.128;2024-01-27T03:49:55;2.50;1.00
12152;DHT22;6139;51.274;7.128;2024-01-27T03:50:57;2.50;1.00
12152;DHT22;6139;51.274;7.128;2024-01-27T03:51:58;2.40;1.00
12152;DHT22;6139;51.274;7.128;2024-01-27T03:53:00;2.40;1.00
12152;DHT22;6139;51.274;7.128;2024-01-27T03:54:01;2.40;1.00
12152;DHT22;6139;51.274;7.128;2024-01-27T03:55:02;2.50;1.00
12152;DHT22;6139;51.274;7.128;2024-01-27T03:56:06;2.50;1.00
12152;DHT22;6139;51.274;7.128;2024-01-27T03:57:08;2.40;1.00
12152;DHT22;6139;51.274;7.128;2024-01-27T03:58:10;2.40;1.00
12152;DHT22;6139;51.274;7.128;2024-01-27T03:59:11;2.40;1.00
12152;DHT22;6139;51.274;7.128;2024-01-27T04:00:14;2.40;1.00
12152;DHT22;6139;51.274;7.128;2024-01-27T04:01:15;2.40;1.00
12152;DHT22;6139;51.274;7.128;2024-01-27T04:02:17;2.40;1.00
12152;DHT22;6139;51.274;7.128;2024-01-27T04:03:18;2.40;1.00
12152;DHT22;6139;51.274;7.128;2024-01-27T04:04:20;2.40;1.00
12152;DHT22;6139;51.274;7.128;2024-01-27T04:05:21;2.40;1.00
12152;DHT22;6139;51.274;7.128;2024-01-27T04:06:23;2.40;1.00
12152;DHT22;6139;51.274;7.128;2024-01-27T04:07:24;2.40;1.00
12152;DHT22;6139;51.274;7.128;2024-01-27T04:08:26;2.30;1.00
12152;DHT22;6139;51.274;7.128;2024-01-27T04:09:27;2.30;1.00
12152;DHT22;6139;51.274;7.128;2024-01-27T04:10:29;2.30;1.00
12152;DHT22;6139;51.274;7.128;2024-01-27T04:11:30;2.30;1.00
12152;DHT22;6139;51.274;7.128;2024-01-27T04:12:33;2.40;1.00
12152;DHT22;6139;51.274;7.128;2024-01-27T04:13:34;2.40;1.00
12152;DHT22;6139;51.274;7.128;2024-01-27T04:14:36;2.40;1.00
12152;DHT22;6139;51.274;7.128;2024-01-27T04:15:37;2.40;1.00
12152;DHT22;6139;51.274;7.128;2024-01-27T04:16:40;2.40;1.00
12152;DHT22;6139;51.274;7.128;2024-01-27T04:17:41;2.40;1.00
12152;DHT22;6139;51.274;7.128;2024-01-27T04:18:43;2.40;1.00
12152;DHT22;6139;51.274;7.128;2024-01-27T04:19:44;2.40;1.00
12152;DHT22;6139;51.274;7.128;2024-01-27T04:20:46;2.30;1.00
12152;DHT22;6139;51.274;7.128;2024-01-27T04:21:49;2.30;1.00
12152;DHT22;6139;51.274;7.128;2024-01-27T04:22:51;2.30;1.00
12152;DHT22;6139;51.274;7.128;2024-01-27T04:23:52;2.30;1.00
12152;DHT22;6139;51.274;7.128;2024-01-27T04:24:54;2.30;1.00
12152;DHT22;6139;51.274;7.128;2024-01-27T04:25:55;2.30;1.00
12152;DHT22;6139;51.274;7.128;2024-01-27T04:26:58;2.30;1.00
12152;DHT22;6139;51.274;7.128;2024-01-27T04:28:01;2.30;1.00
12152;DHT22;6139;51.274;7.128;2024-01-27T04:29:03;2.30;1.00
12152;DHT22;6139;51.274;7.128;2024-01-27T04:30:06;2.30;1.00
12152;DHT22;6139;51.274;7.128;2024-01-27T04:31:08;2.30;1.00
12152;DHT22;6139;51.274;7.128;2024-01-27T04:32:09;2.20;1.00
12152;DHT22;6139;51.274;7.128;2024-01-27T04:33:12;2.20;1.00
12152;DHT22;6139;51.274;7.128;2024-01-27T04:34:13;2.20;1.00
12152;DHT22;6139;51.274;7.128;2024-01-27T04:35:15;2.20;1.00
12152;DHT22;6139;51.274;7.128;2024-01-27T04:36:25;2.20;1.00
12152;DHT22;6139;51.274;7.128;2024-01-27T04:37:27;2.20;1.00
12152;DHT22;6139;51.274;7.128;2024-01-27T04:38:28;2.10;1.00
12152;DHT22;6139;51.274;7.128;2024-01-27T04:39:30;2.10;1.00
12152;DHT22;6139;51.274;7.128;2024-01-27T04:40:31;2.10;1.00
12152;DHT22;6139;51.274;7.128;2024-01-27T04:41:33;2.20;1.00
12152;DHT22;6139;51.274;7.128;2024-01-27T04:42:34;2.10;1.00
12152;DHT22;6139;51.274;7.128;2024-01-27T04:43:38;2.10;1.00
12152;DHT22;6139;51.274;7.128;2024-01-27T04:44:40;2.10;1.00
12152;DHT22;6139;51.274;7.128;2024-01-27T04:45:42;2.10;1.00
12152;DHT22;6139;51.274;7.128;2024-01-27T04:46:43;2.10;1.00
12152;DHT22;6139;51.274;7.128;2024-01-27T04:47:45;2.10;1.00
12152;DHT22;6139;51.274;7.128;2024-01-27T04:48:46;2.10;1.00
12152;DHT22;6139;51.274;7.128;2024-01-27T04:49:48;2.10;1.00
12152;DHT22;6139;51.274;7.128;2024-01-27T04:50:48;2.10;1.00
12152;DHT22;6139;51.274;7.128;2024-01-27T04:51:51;2.10;1.00
12152;DHT22;6139;51.274;7.128;2024-01-27T04:52:52;2.10;1.00
12152;DHT22;6139;51.274;7.128;2024-01-27T04:53:54;2.10;1.00
12152;DHT22;6139;51.274;7.128;2024-01-27T04:54:55;2.10;1.00
12152;DHT22;6139;51.274;7.128;2024-01-27T04:55:57;2.10;1.00
12152;DHT22;6139;51.274;7.128;2024-01-27T04:56:58;2.10;1.00
12152;DHT22;6139;51.274;7.128;2024-01-27T04:57:59;2.10;1.00
12152;DHT22;6139;51.274;7.128;2024-01-27T04:59:03;2.10;1.00
12152;DHT22;6139;51.274;7.128;2024-01-27T05:00:04;2.10;1.00
12152;DHT22;6139;51.274;7.128;2024-01-27T05:01:08;2.10;1.00
12152;DHT22;6139;51.274;7.128;2024-01-27T05:02:11;2.10;1.00
12152;DHT22;6139;51.274;7.128;2024-01-27T05:03:12;2.10;1.00
12152;DHT22;6139;51.274;7.128;2024-01-27T05:04:14;2.10;1.00
12152;DHT22;6139;51.274;7.128;2024-01-27T05:05:15;2.10;1.00
12152;DHT22;6139;51.274;7.128;2024-01-27T05:06:17;2.10;1.00
12152;DHT22;6139;51.274;7.128;2024-01-27T05:07:18;2.10;1.00
12152;DHT22;6139;51.274;7.128;2024-01-27T05:08:20;2.10;1.00
12152;DHT22;6139;51.274;7.128;2024-01-27T05:09:21;2.10;1.00
12152;DHT22;6139;51.274;7.128;2024-01-27T05:10:23;2.10;1.00
12152;DHT22;6139;51.274;7.128;2024-01-27T05:11:30;2.10;1.00
12152;DHT22;6139;51.274;7.128;2024-01-27T05:12:32;2.10;1.00
12152;DHT22;6139;51.274;7.128;2024-01-27T05:13:33;2.10;1.00
12152;DHT22;6139;51.274;7.128;2024-01-27T05:14:37;2.10;1.00
12152;DHT22;6139;51.274;7.128;2024-01-27T05:15:38;2.10;1.00
12152;DHT22;6139;51.274;7.128;2024-01-27T05:16:40;2.10;1.00
12152;DHT22;6139;51.274;7.128;2024-01-27T05:17:40;2.10;1.00
12152;DHT22;6139;51.274;7.128;2024-01-27T05:18:42;2.10;1.00
12152;DHT22;6139;51.274;7.128;2024-01-27T05:19:44;2.10;1.00
12152;DHT22;6139;51.274;7.128;2024-01-27T05:20:45;2.10;1.00
12152;DHT22;6139;51.274;7.128;2024-01-27T05:21:46;2.10;1.00
12152;DHT22;6139;51.274;7.128;2024-01-27T05:22:47;2.10;1.00
12152;DHT22;6139;51.274;7.128;2024-01-27T05:23:49;2.10;1.00
12152;DHT22;6139;51.274;7.128;2024-01-27T05:24:50;2.10;1.00
12152;DHT22;6139;51.274;7.128;2024-01-27T05:25:52;2.10;1.00
12152;DHT22;6139;51.274;7.128;2024-01-27T05:26:55;2.10;1.00
12152;DHT22;6139;51.274;7.128;2024-01-27T05:27:57;2.10;1.00
12152;DHT22;6139;51.274;7.128;2024-01-27T05:28:58;2.10;1.00
12152;DHT22;6139;51.274;7.128;2024-01-27T05:30:00;2.10;1.00
12152;DHT22;6139;51.274;7.128;2024-01-27T05:31:03;2.20;1.00
12152;DHT22;6139;51.274;7.128;2024-01-27T05:32:04;2.20;1.00
12152;DHT22;6139;51.274;7.128;2024-01-27T05:33:06;2.20;1.00
12152;DHT22;6139;51.274;7.128;2024-01-27T05:34:07;2.10;1.00
12152;DHT22;6139;51.274;7.128;2024-01-27T05:35:08;2.10;1.00
12152;DHT22;6139;51.274;7.128;2024-01-27T05:36:11;2.10;1.00
12152;DHT22;6139;51.274;7.128;2024-01-27T05:37:12;2.10;1.00
12152;DHT22;6139;51.274;7.128;2024-01-27T05:38:14;2.10;1.00
12152;DHT22;6139;51.274;7.128;2024-01-27T05:39:16;2.10;1.00
12152;DHT22;6139;51.274;7.128;2024-01-27T05:40:18;2.00;1.00
12152;DHT22;6139;51.274;7.128;2024-01-27T05:41:19;2.00;1.00
12152;DHT22;6139;51.274;7.128;2024-01-27T05:42:21;2.00;1.00
12152;DHT22;6139;51.274;7.128;2024-01-27T05:43:23;2.00;1.00
12152;DHT22;6139;51.274;7.128;2024-01-27T05:44:24;2.00;1.00
12152;DHT22;6139;51.274;7.128;2024-01-27T05:45:27;2.00;1.00
12152;DHT22;6139;51.274;7.128;2024-01-27T05:46:29;1.90;1.00
12152;DHT22;6139;51.274;7.128;2024-01-27T05:47:31;2.00;1.00
12152;DHT22;6139;51.274;7.128;2024-01-27T05:48:32;2.00;1.00
12152;DHT22;6139;51.274;7.128;2024-01-27T05:49:34;2.00;1.00
12152;DHT22;6139;51.274;7.128;2024-01-27T05:50:35;2.00;1.00
12152;DHT22;6139;51.274;7.128;2024-01-27T05:51:37;2.00;1.00
12152;DHT22;6139;51.274;7.128;2024-01-27T05:52:38;2.00;1.00
12152;DHT22;6139;51.274;7.128;2024-01-27T05:53:40;2.00;1.00
12152;DHT22;6139;51.274;7.128;2024-01-27T05:54:41;2.00;1.00
12152;DHT22;6139;51.274;7.128;2024-01-27T05:55:43;1.90;1.00
12152;DHT22;6139;51.274;7.128;2024-01-27T05:56:46;1.90;1.00
12152;DHT22;6139;51.274;7.128;2024-01-27T05:57:48;1.90;1.00
12152;DHT22;6139;51.274;7.128;2024-01-27T05:58:49;1.90;1.00
12152;DHT22;6139;51.274;7.128;2024-01-27T05:59:51;2.00;1.00
12152;DHT22;6139;51.274;7.128;2024-01-27T06:00:53;2.00;1.00
12152;DHT22;6139;51.274;7.128;2024-01-27T06:01:55;2.00;1.00
12152;DHT22;6139;51.274;7.128;2024-01-27T06:02:58;2.00;1.00
12152;DHT22;6139;51.274;7.128;2024-01-27T06:04:00;1.90;1.00
12152;DHT22;6139;51.274;7.128;2024-01-27T06:05:01;1.90;1.00
12152;DHT22;6139;51.274;7.128;2024-01-27T06:06:03;1.90;1.00
12152;DHT22;6139;51.274;7.128;2024-01-27T06:07:04;1.90;1.00
12152;DHT22;6139;51.274;7.128;2024-01-27T06:08:06;2.00;1.00
12152;DHT22;6139;51.274;7.128;2024-01-27T06:09:08;2.00;1.00
12152;DHT22;6139;51.274;7.128;2024-01-27T06:10:11;2.00;1.00
12152;DHT22;6139;51.274;7.128;2024-01-27T06:11:12;2.00;1.00
12152;DHT22;6139;51.274;7.128;2024-01-27T06:12:15;2.00;1.00
12152;DHT22;6139;51.274;7.128;2024-01-27T06:13:16;2.00;1.00
12152;DHT22;6139;51.274;7.128;2024-01-27T06:14:17;2.10;1.00
12152;DHT22;6139;51.274;7.128;2024-01-27T06:15:19;2.00;1.00
12152;DHT22;6139;51.274;7.128;2024-01-27T06:16:21;2.00;1.00
12152;DHT22;6139;51.274;7.128;2024-01-27T06:17:24;2.00;1.00
12152;DHT22;6139;51.274;7.128;2024-01-27T06:18:25;2.00;1.00
12152;DHT22;6139;51.274;7.128;2024-01-27T06:19:26;2.00;1.00
12152;DHT22;6139;51.274;7.128;2024-01-27T06:20:28;1.90;1.00
12152;DHT22;6139;51.274;7.128;2024-01-27T06:21:29;1.90;1.00
12152;DHT22;6139;51.274;7.128;2024-01-27T06:22:31;1.90;1.00
12152;DHT22;6139;51.274;7.128;2024-01-27T06:23:33;1.90;1.00
12152;DHT22;6139;51.274;7.128;2024-01-27T06:24:34;2.00;1.00
12152;DHT22;6139;51.274;7.128;2024-01-27T06:25:36;2.00;1.00
12152;DHT22;6139;51.274;7.128;2024-01-27T06:26:37;2.00;1.00
12152;DHT22;6139;51.274;7.128;2024-01-27T06:27:39;2.00;1.00
12152;DHT22;6139;51.274;7.128;2024-01-27T06:28:42;2.00;1.00
12152;DHT22;6139;51.274;7.128;2024-01-27T06:29:44;2.00;1.00
12152;DHT22;6139;51.274;7.128;2024-01-27T06:30:45;2.00;1.00
12152;DHT22;6139;51.274;7.128;2024-01-27T06:31:48;2.00;1.00
12152;DHT22;6139;51.274;7.128;2024-01-27T06:32:49;2.00;1.00
12152;DHT22;6139;51.274;7.128;2024-01-27T06:33:51;2.00;1.00
12152;DHT22;6139;51.274;7.128;2024-01-27T06:34:53;2.00;1.00
12152;DHT22;6139;51.274;7.128;2024-01-27T06:35:54;2.00;1.00
12152;DHT22;6139;51.274;7.128;2024-01-27T06:36:55;2.10;1.00
12152;DHT22;6139;51.274;7.128;2024-01-27T06:37:57;2.10;1.00
12152;DHT22;6139;51.274;7.128;2024-01-27T06:38:58;2.10;1.00
12152;DHT22;6139;51.274;7.128;2024-01-27T06:40:00;2.00;1.00
12152;DHT22;6139;51.274;7.128;2024-01-27T06:41:02;2.00;1.00
12152;DHT22;6139;51.274;7.128;2024-01-27T06:42:04;2.00;1.00
12152;DHT22;6139;51.274;7.128;2024-01-27T06:43:05;2.00;1.00
12152;DHT22;6139;51.274;7.128;2024-01-27T06:44:07;2.00;1.00
12152;DHT22;6139;51.274;7.128;2024-01-27T06:45:09;2.00;1.00
12152;DHT22;6139;51.274;7.128;2024-01-27T06:46:10;1.90;1.00
12152;DHT22;6139;51.274;7.128;2024-01-27T06:47:13;1.90;1.00
12152;DHT22;6139;51.274;7.128;2024-01-27T06:48:14;1.90;1.00